createdAt,value
2022-12-08T00:01:35.309Z,20.10
2022-12-08T00:04:05.104Z,21.17
2022-12-08T00:06:52.823Z,21.57
2022-12-08T00:09:23.222Z,22.40
2022-12-08T00:11:59.036Z,31.90
2022-12-08T00:14:30.164Z,23.83
2022-12-08T00:16:59.186Z,24.93
2022-12-08T00:19:28.081Z,19.73
2022-12-08T00:21:56.477Z,23.17
2022-12-08T00:24:26.263Z,20.77
2022-12-08T00:26:54.283Z,20.80
2022-12-08T00:29:23.361Z,20.17
2022-12-08T00:31:53.158Z,21.30
2022-12-08T00:34:21.601Z,20.70
2022-12-08T00:36:49.646Z,19.43
2022-12-08T00:39:18.822Z,22.53
2022-12-08T00:42:04.500Z,17.27
2022-12-08T00:44:32.604Z,21.13
2022-12-08T00:47:02.011Z,19.40
2022-12-08T00:49:30.032Z,21.27
2022-12-08T00:51:58.114Z,21.40
2022-12-08T00:54:26.272Z,21.77
2022-12-08T00:56:54.397Z,18.47
2022-12-08T00:59:22.577Z,19.30
2022-12-08T01:01:50.701Z,15.60
2022-12-08T01:04:21.304Z,16.80
2022-12-08T01:06:49.626Z,18.73
2022-12-08T01:09:19.008Z,19.27
2022-12-08T01:11:47.586Z,16.57
2022-12-08T01:14:16.356Z,16.40
2022-12-08T01:16:44.907Z,15.97
2022-12-08T01:19:14.736Z,16.90
2022-12-08T01:21:45.345Z,17.90
2022-12-08T01:24:14.737Z,14.67
2022-12-08T01:26:43.388Z,19.73
2022-12-08T01:29:12.310Z,14.83
2022-12-08T01:31:40.537Z,17.43
2022-12-08T01:34:09.544Z,14.73
2022-12-08T01:36:38.654Z,16.33
2022-12-08T01:39:11.389Z,15.53
2022-12-08T01:41:40.099Z,16.43
2022-12-08T01:44:41.516Z,16.00
2022-12-08T01:47:10.488Z,40.40
2022-12-08T01:49:38.993Z,19.40
2022-12-08T01:52:13.494Z,17.80
2022-12-08T01:54:48.402Z,16.50
2022-12-08T01:57:19.639Z,17.17
2022-12-08T01:59:52.278Z,17.47
2022-12-08T02:02:20.496Z,17.80
2022-12-08T02:04:48.563Z,15.33
2022-12-08T02:07:18.909Z,13.63
2022-12-08T02:09:48.429Z,15.97
2022-12-08T02:12:16.826Z,15.83
2022-12-08T02:14:45.012Z,14.17
2022-12-08T02:17:28.836Z,14.73
2022-12-08T02:20:18.166Z,16.27
2022-12-08T02:22:54.806Z,15.63
2022-12-08T02:25:31.521Z,13.40
2022-12-08T02:28:11.166Z,14.60
2022-12-08T02:30:48.269Z,16.67
2022-12-08T02:33:58.115Z,15.67
2022-12-08T02:36:36.626Z,18.93
2022-12-08T02:39:12.772Z,15.50
2022-12-08T02:41:47.472Z,16.43
2022-12-08T02:44:22.420Z,16.57
2022-12-08T02:46:55.219Z,17.17
2022-12-08T02:49:28.522Z,15.10
2022-12-08T02:52:30.201Z,15.30
2022-12-08T02:55:04.217Z,16.90
2022-12-08T02:57:43.324Z,15.57
2022-12-08T03:00:15.835Z,15.80
2022-12-08T03:02:54.402Z,15.00
2022-12-08T03:05:38.787Z,18.10
2022-12-08T03:08:13.106Z,21.70
2022-12-08T03:10:47.505Z,16.53
2022-12-08T03:13:17.714Z,18.73
2022-12-08T03:15:49.430Z,19.20
2022-12-08T03:18:20.444Z,19.97
2022-12-08T03:20:49.955Z,15.50
2022-12-08T03:23:19.912Z,20.60
2022-12-08T03:25:56.124Z,16.43
2022-12-08T03:28:24.581Z,14.10
2022-12-08T03:30:58.839Z,17.33
2022-12-08T03:33:30.376Z,17.50
2022-12-08T03:35:59.464Z,14.40
2022-12-08T03:38:27.488Z,16.07
2022-12-08T03:41:14.291Z,16.00
2022-12-08T03:43:42.305Z,16.50
2022-12-08T03:46:10.409Z,16.80
2022-12-08T03:48:38.444Z,14.70
2022-12-08T03:51:06.615Z,16.70
2022-12-08T03:53:34.634Z,13.63
2022-12-08T03:56:05.129Z,16.10
2022-12-08T03:58:37.401Z,15.80
2022-12-08T04:01:05.732Z,14.93
2022-12-08T04:03:33.724Z,16.80
2022-12-08T04:06:01.767Z,16.30
2022-12-08T04:08:29.846Z,13.80
2022-12-08T04:10:57.997Z,19.27
2022-12-08T04:13:27.445Z,15.90
2022-12-08T04:15:55.583Z,16.07
2022-12-08T04:18:23.700Z,16.97
2022-12-08T04:20:51.845Z,20.43
2022-12-08T04:23:19.893Z,14.87
2022-12-08T04:25:47.970Z,16.20
2022-12-08T04:28:16.613Z,19.63
2022-12-08T04:30:46.337Z,16.00
2022-12-08T04:33:14.422Z,15.33
2022-12-08T04:35:42.456Z,14.90
2022-12-08T04:38:10.555Z,16.27
2022-12-08T04:40:38.661Z,17.20
2022-12-08T04:43:06.751Z,17.53
2022-12-08T04:45:35.260Z,16.70
2022-12-08T04:48:04.679Z,17.93
2022-12-08T04:50:32.773Z,14.77
2022-12-08T04:53:00.902Z,16.27
2022-12-08T04:55:28.934Z,14.70
2022-12-08T04:57:57.020Z,18.40
2022-12-08T05:00:25.191Z,15.53
2022-12-08T05:02:53.513Z,16.87
2022-12-08T05:05:22.994Z,17.50
2022-12-08T05:07:51.121Z,16.53
2022-12-08T05:10:19.180Z,15.90
2022-12-08T05:12:47.258Z,16.73
2022-12-08T05:15:15.462Z,15.03
2022-12-08T05:17:43.536Z,17.70
2022-12-08T05:20:12.681Z,15.80
2022-12-08T05:22:42.149Z,14.70
2022-12-08T05:25:10.890Z,14.20
2022-12-08T05:27:39.115Z,15.23
2022-12-08T05:30:08.391Z,16.80
2022-12-08T05:32:36.456Z,15.97
2022-12-08T05:35:04.536Z,16.67
2022-12-08T05:37:32.596Z,18.40
2022-12-08T05:40:02.343Z,14.80
2022-12-08T05:42:30.659Z,16.87
2022-12-08T05:44:58.722Z,16.10
2022-12-08T05:47:29.738Z,18.30
2022-12-08T05:49:59.966Z,16.43
2022-12-08T05:52:28.132Z,17.60
2022-12-08T05:54:56.289Z,17.53
2022-12-08T05:57:25.940Z,17.13
2022-12-08T05:59:54.185Z,19.70
2022-12-08T06:02:22.559Z,16.37
2022-12-08T06:04:50.810Z,15.90
2022-12-08T06:07:19.057Z,18.10
2022-12-08T06:09:47.050Z,18.20
2022-12-08T06:12:16.150Z,17.37
2022-12-08T06:14:45.776Z,19.43
2022-12-08T06:17:13.856Z,15.80
2022-12-08T06:19:41.953Z,18.30
2022-12-08T06:22:10.008Z,18.60
2022-12-08T06:24:38.036Z,17.40
2022-12-08T06:27:06.104Z,20.63
2022-12-08T06:29:34.362Z,18.23
2022-12-08T06:32:03.882Z,15.40
2022-12-08T06:34:32.050Z,18.40
2022-12-08T06:37:00.160Z,18.30
2022-12-08T06:39:28.358Z,21.67
2022-12-08T06:42:13.970Z,20.57
2022-12-08T06:44:41.984Z,20.70
2022-12-08T06:47:11.344Z,18.87
2022-12-08T06:49:39.469Z,20.97
2022-12-08T06:52:07.591Z,20.30
2022-12-08T06:54:35.816Z,18.70
2022-12-08T06:57:04.523Z,18.40
2022-12-08T06:59:32.587Z,19.83
2022-12-08T07:02:00.644Z,22.47
2022-12-08T07:04:30.160Z,21.80
2022-12-08T07:06:58.164Z,22.10
2022-12-08T07:09:26.307Z,20.97
2022-12-08T07:11:54.470Z,20.23
2022-12-08T07:14:24.843Z,21.03
2022-12-08T07:16:53.585Z,17.40
2022-12-08T07:19:21.758Z,21.23
2022-12-08T07:21:51.153Z,19.47
2022-12-08T07:24:19.434Z,29.17
2022-12-08T07:26:47.614Z,31.67
2022-12-08T07:29:15.789Z,20.10
2022-12-08T07:31:43.923Z,22.30
2022-12-08T07:34:13.686Z,22.67
2022-12-08T07:36:41.790Z,19.30
2022-12-08T07:39:11.317Z,18.00
2022-12-08T07:41:39.427Z,21.27
2022-12-08T07:44:07.516Z,19.40
2022-12-08T07:46:35.591Z,18.80
2022-12-08T07:49:03.704Z,20.50
2022-12-08T07:51:31.771Z,18.70
2022-12-08T07:54:00.204Z,22.77
2022-12-08T07:56:29.590Z,25.00
2022-12-08T07:58:57.777Z,20.07
2022-12-08T08:01:28.412Z,17.43
2022-12-08T08:03:58.205Z,21.63
2022-12-08T08:06:26.347Z,20.67
2022-12-08T08:08:54.427Z,21.83
2022-12-08T08:11:22.613Z,22.43
2022-12-08T08:13:52.618Z,22.00
2022-12-08T08:16:21.037Z,20.50
2022-12-08T08:18:50.283Z,20.87
2022-12-08T08:21:44.405Z,21.47
2022-12-08T08:24:07.804Z,21.00
2022-12-08T08:26:35.863Z,20.30
2022-12-08T08:29:05.496Z,22.53
2022-12-08T08:31:33.585Z,24.30
2022-12-08T08:34:06.099Z,21.47
2022-12-08T08:36:34.397Z,22.37
2022-12-08T08:39:02.481Z,27.33
2022-12-08T08:41:31.261Z,20.03
2022-12-08T08:43:59.476Z,19.53
2022-12-08T08:46:29.030Z,20.57
2022-12-08T08:48:57.549Z,22.50
2022-12-08T08:51:25.649Z,27.57
2022-12-08T08:53:53.808Z,23.47
2022-12-08T08:56:21.842Z,20.93
2022-12-08T08:58:50.730Z,21.23
2022-12-08T09:01:21.040Z,21.13
2022-12-08T09:03:50.986Z,22.70
2022-12-08T09:06:19.925Z,21.27
2022-12-08T09:08:49.975Z,17.27
2022-12-08T09:11:19.000Z,22.10
2022-12-08T09:13:49.393Z,20.80
2022-12-08T09:16:18.665Z,17.80
2022-12-08T09:18:48.221Z,23.73
2022-12-08T09:21:23.681Z,20.30
2022-12-08T09:23:52.002Z,21.83
2022-12-08T09:26:22.302Z,17.67
2022-12-08T09:28:50.779Z,21.60
2022-12-08T09:31:20.119Z,22.30
2022-12-08T09:33:48.646Z,18.97
2022-12-08T09:36:18.661Z,22.20
2022-12-08T09:38:47.740Z,19.27
2022-12-08T09:41:18.789Z,23.50
2022-12-08T09:43:58.621Z,22.87
2022-12-08T09:46:29.765Z,20.20
2022-12-08T09:49:00.223Z,20.60
2022-12-08T09:51:36.099Z,21.73
2022-12-08T09:54:08.422Z,21.60
2022-12-08T09:56:38.669Z,18.63
2022-12-08T09:59:22.126Z,18.40
2022-12-08T10:01:50.847Z,15.37
2022-12-08T10:04:25.046Z,15.10
2022-12-08T10:07:04.733Z,17.93
2022-12-08T10:09:40.655Z,16.80
2022-12-08T10:12:17.216Z,22.67
2022-12-08T10:14:48.317Z,22.60
2022-12-08T10:17:21.233Z,25.70
2022-12-08T10:19:50.193Z,23.70
2022-12-08T10:22:23.074Z,21.70
2022-12-08T10:24:58.903Z,18.43
2022-12-08T10:27:27.769Z,25.73
2022-12-08T10:29:55.827Z,21.57
2022-12-08T10:32:25.386Z,21.77
2022-12-08T10:35:02.735Z,24.97
2022-12-08T10:37:32.188Z,20.20
2022-12-08T10:40:01.621Z,20.03
2022-12-08T10:42:36.441Z,23.33
2022-12-08T10:45:22.533Z,24.13
2022-12-08T10:48:00.189Z,21.40
2022-12-08T10:50:36.819Z,23.70
2022-12-08T10:53:16.138Z,16.70
2022-12-08T10:55:46.551Z,17.60
2022-12-08T10:58:29.095Z,24.30
2022-12-08T11:00:58.998Z,18.60
2022-12-08T11:03:31.269Z,21.33
2022-12-08T11:06:07.072Z,20.37
2022-12-08T11:08:48.453Z,21.50
2022-12-08T11:11:17.046Z,21.47
2022-12-08T11:13:45.298Z,24.50
2022-12-08T11:16:15.984Z,21.53
2022-12-08T11:18:46.995Z,18.57
2022-12-08T11:21:19.384Z,21.37
2022-12-08T11:23:51.943Z,24.17
2022-12-08T11:26:28.845Z,19.40
2022-12-08T11:28:57.945Z,22.10
2022-12-08T11:31:30.450Z,17.00
2022-12-08T11:33:58.957Z,21.00
2022-12-08T11:36:30.298Z,19.00
2022-12-08T11:39:03.557Z,17.70
2022-12-08T11:41:37.077Z,16.50
2022-12-08T11:44:11.385Z,23.47
2022-12-08T11:46:44.227Z,19.23
2022-12-08T11:49:14.600Z,19.57
2022-12-08T11:51:50.921Z,16.90
2022-12-08T11:54:27.299Z,18.50
2022-12-08T11:56:58.225Z,16.13
2022-12-08T11:59:32.306Z,19.97
2022-12-08T12:02:02.482Z,22.63
2022-12-08T12:04:34.149Z,18.10
2022-12-08T12:07:26.131Z,22.90
2022-12-08T12:10:11.467Z,16.60
2022-12-08T12:12:52.513Z,18.50
2022-12-08T12:15:57.936Z,18.87
2022-12-08T12:18:30.670Z,18.30
2022-12-08T12:21:03.015Z,18.60
2022-12-08T12:23:38.585Z,21.30
2022-12-08T12:26:11.075Z,19.70
2022-12-08T12:28:44.198Z,19.37
2022-12-08T12:31:16.291Z,23.57
2022-12-08T12:33:46.630Z,19.97
2022-12-08T12:36:16.061Z,18.97
2022-12-08T12:39:06.210Z,18.07
2022-12-08T12:41:44.057Z,20.23
2022-12-08T12:44:43.408Z,15.97
2022-12-08T12:47:36.101Z,21.97
2022-12-08T12:50:10.441Z,18.83
2022-12-08T12:52:49.226Z,16.07
2022-12-08T12:55:53.113Z,23.57
2022-12-08T12:58:34.299Z,21.73
2022-12-08T13:01:37.304Z,24.47
2022-12-08T13:04:08.348Z,21.10
2022-12-08T13:06:42.905Z,17.27
2022-12-08T13:09:22.463Z,20.37
2022-12-08T13:11:54.463Z,20.77
2022-12-08T13:14:30.057Z,16.33
2022-12-08T13:17:01.001Z,20.87
2022-12-08T13:19:33.424Z,18.07
2022-12-08T13:22:03.286Z,21.63
2022-12-08T13:24:35.856Z,18.87
2022-12-08T13:27:35.615Z,21.77
2022-12-08T13:30:41.404Z,18.57
2022-12-08T13:33:18.110Z,19.77
2022-12-08T13:35:53.216Z,22.67
2022-12-08T13:38:26.728Z,17.83
2022-12-08T13:40:57.008Z,20.00
2022-12-08T13:43:43.440Z,17.57
2022-12-08T13:51:23.704Z,19.30
2022-12-08T13:57:50.344Z,17.40
2022-12-08T14:00:20.629Z,15.30
2022-12-08T14:02:51.335Z,17.03
2022-12-08T14:05:30.049Z,16.87
2022-12-08T14:08:42.957Z,17.00
2022-12-08T14:11:33.366Z,16.33
2022-12-08T14:14:04.444Z,16.37
2022-12-08T14:16:38.585Z,17.97
2022-12-08T14:19:17.498Z,17.17
2022-12-08T14:21:54.650Z,18.60
2022-12-08T14:24:24.724Z,20.03
2022-12-08T14:26:56.378Z,16.57
2022-12-08T14:29:51.272Z,17.87
2022-12-08T14:32:30.031Z,16.90
2022-12-08T14:35:01.142Z,18.43
2022-12-08T14:37:32.612Z,18.50
2022-12-08T14:40:03.739Z,18.93
2022-12-08T14:42:44.564Z,17.50
2022-12-08T14:45:15.213Z,18.73
2022-12-08T14:47:43.693Z,20.60
2022-12-08T14:50:43.618Z,23.10
2022-12-08T14:53:15.510Z,21.93
2022-12-08T14:55:46.067Z,19.87
2022-12-08T14:58:22.058Z,21.57
2022-12-08T15:00:52.232Z,20.40
2022-12-08T15:03:23.683Z,20.37
2022-12-08T15:05:53.333Z,23.07
2022-12-08T15:08:21.512Z,21.37
2022-12-08T15:11:14.257Z,20.30
2022-12-08T15:13:48.235Z,21.77
2022-12-08T15:16:27.052Z,18.00
2022-12-08T15:19:09.740Z,19.20
2022-12-08T15:21:41.542Z,17.03
2022-12-08T15:24:12.569Z,27.80
2022-12-08T15:26:43.138Z,17.30
2022-12-08T15:29:15.200Z,19.60
2022-12-08T15:31:43.671Z,17.40
2022-12-08T15:34:11.793Z,22.70
2022-12-08T15:36:42.830Z,20.33
2022-12-08T15:39:22.593Z,20.97
2022-12-08T15:41:50.734Z,20.77
2022-12-08T15:44:20.276Z,23.80
2022-12-08T15:46:49.917Z,21.90
2022-12-08T15:49:19.975Z,20.80
2022-12-08T15:51:48.870Z,19.77
2022-12-08T15:54:17.305Z,22.60
2022-12-08T15:57:17.419Z,20.47
2022-12-08T15:59:37.371Z,22.90
2022-12-08T16:02:05.604Z,20.60
2022-12-08T16:07:26.023Z,21.70
2022-12-08T16:09:54.367Z,19.37
2022-12-08T16:13:40.530Z,23.87
2022-12-08T16:15:51.737Z,23.23
2022-12-08T16:18:26.033Z,23.00
2022-12-08T16:23:45.024Z,24.80
2022-12-08T16:26:28.449Z,25.50
2022-12-08T16:29:03.668Z,25.43
2022-12-08T16:31:33.357Z,26.87
2022-12-08T16:34:01.704Z,28.63
2022-12-08T16:36:29.739Z,27.80
2022-12-08T16:38:57.969Z,28.33
2022-12-08T16:41:43.666Z,26.40
2022-12-08T16:44:11.776Z,25.57
2022-12-08T16:46:41.167Z,23.87
2022-12-08T16:49:10.630Z,23.40
2022-12-08T16:51:38.676Z,26.67
2022-12-08T16:54:06.971Z,27.57
2022-12-08T16:56:35.163Z,23.53
2022-12-08T16:59:03.327Z,27.40
2022-12-08T17:01:31.785Z,29.23
2022-12-08T17:04:29.985Z,31.77
2022-12-08T17:06:52.682Z,31.40
2022-12-08T17:09:20.874Z,29.20
2022-12-08T17:11:49.014Z,35.77
2022-12-08T17:14:17.264Z,39.27
2022-12-08T17:16:46.376Z,33.07
2022-12-08T17:19:16.580Z,33.27
2022-12-08T17:21:45.465Z,30.53
2022-12-08T17:24:17.135Z,26.37
2022-12-08T17:26:48.403Z,30.60
2022-12-08T17:29:18.737Z,28.97
2022-12-08T17:31:46.914Z,29.13
2022-12-08T17:34:16.434Z,28.57
2022-12-08T17:36:44.646Z,29.43
2022-12-08T17:39:18.286Z,27.87
2022-12-08T17:41:47.572Z,27.03
2022-12-08T17:44:18.448Z,30.20
2022-12-08T17:46:52.582Z,28.17
2022-12-08T17:49:24.934Z,29.83
2022-12-08T17:51:54.322Z,26.43
2022-12-08T17:54:22.531Z,26.67
2022-12-08T17:56:50.598Z,28.13
2022-12-08T17:59:19.038Z,31.77
2022-12-08T18:01:47.357Z,33.53
2022-12-08T18:04:15.617Z,28.17
2022-12-08T18:06:44.995Z,25.50
2022-12-08T18:09:13.457Z,31.70
2022-12-08T18:11:41.743Z,27.27
2022-12-08T18:14:10.933Z,31.60
2022-12-08T18:16:40.955Z,27.77
2022-12-08T18:19:09.892Z,35.10
2022-12-08T18:21:38.891Z,34.80
2022-12-08T18:24:09.707Z,31.80
2022-12-08T18:26:37.835Z,29.83
2022-12-08T18:29:05.957Z,36.70
2022-12-08T18:31:34.078Z,35.23
2022-12-08T18:34:02.135Z,27.43
2022-12-08T18:36:30.213Z,26.87
2022-12-08T18:38:58.315Z,27.60
2022-12-08T18:41:28.293Z,26.57
2022-12-08T18:43:57.265Z,25.03
2022-12-08T18:46:26.564Z,28.43
2022-12-08T18:48:54.645Z,27.37
2022-12-08T18:51:24.480Z,26.67
2022-12-08T18:53:52.877Z,26.00
2022-12-08T18:56:25.946Z,25.77
2022-12-08T18:59:02.546Z,28.80
2022-12-08T19:01:31.590Z,25.43
2022-12-08T19:06:48.051Z,33.57
2022-12-08T19:09:16.614Z,29.97
2022-12-08T19:11:45.193Z,27.37
2022-12-08T19:14:14.641Z,28.00
2022-12-08T19:16:42.764Z,24.50
2022-12-08T19:19:10.918Z,24.93
2022-12-08T19:21:44.534Z,22.97
2022-12-08T19:24:12.879Z,24.03
2022-12-08T19:26:40.969Z,25.07
2022-12-08T19:29:09.031Z,25.33
2022-12-08T19:31:38.671Z,27.33
2022-12-08T19:34:06.858Z,25.13
2022-12-08T19:36:36.052Z,23.17
2022-12-08T19:39:22.417Z,25.83
2022-12-08T19:42:08.631Z,26.20
2022-12-08T19:44:55.087Z,22.83
2022-12-08T19:47:26.638Z,27.80
2022-12-08T19:50:16.175Z,28.30
2022-12-08T19:52:45.014Z,28.80
2022-12-08T19:55:13.671Z,32.47
2022-12-08T19:57:41.819Z,36.30
2022-12-08T20:00:13.006Z,31.43
2022-12-08T20:02:42.624Z,33.03
2022-12-08T20:05:12.311Z,38.93
2022-12-08T20:07:40.789Z,45.03
2022-12-08T20:10:15.516Z,44.77
2022-12-08T20:12:43.616Z,45.07
2022-12-08T20:15:12.548Z,33.00
2022-12-08T20:17:42.047Z,33.30
2022-12-08T20:20:11.514Z,37.80
2022-12-08T20:22:39.894Z,37.83
2022-12-08T20:25:12.797Z,30.87
2022-12-08T20:27:42.226Z,29.53
2022-12-08T20:30:16.730Z,31.67
2022-12-08T20:32:46.897Z,32.77
2022-12-08T20:35:16.029Z,28.83
2022-12-08T20:37:44.416Z,32.07
2022-12-08T20:40:12.956Z,38.00
2022-12-08T20:42:41.303Z,30.20
2022-12-08T20:45:10.399Z,32.40
2022-12-08T20:47:38.738Z,32.70
2022-12-08T20:50:10.162Z,32.10
2022-12-08T20:52:38.913Z,34.37
2022-12-08T20:55:08.779Z,32.60
2022-12-08T20:57:37.157Z,33.90
2022-12-08T21:00:06.975Z,27.67
2022-12-08T21:02:35.676Z,28.03
2022-12-08T21:05:04.323Z,30.90
2022-12-08T21:07:34.885Z,36.03
2022-12-08T21:10:04.916Z,37.90
2022-12-08T21:12:33.415Z,45.87
2022-12-08T21:15:01.596Z,40.93
2022-12-08T21:17:29.929Z,34.23
2022-12-08T21:19:58.230Z,29.97
2022-12-08T21:22:26.382Z,27.90
2022-12-08T21:24:56.031Z,25.90
2022-12-08T21:27:24.300Z,24.87
2022-12-08T21:29:52.576Z,28.70
2022-12-08T21:32:24.416Z,29.07
2022-12-08T21:34:55.236Z,25.00
2022-12-08T21:37:24.261Z,25.33
2022-12-08T21:39:52.571Z,27.63
2022-12-08T21:42:39.394Z,24.43
2022-12-08T21:45:08.371Z,25.40
2022-12-08T21:47:36.659Z,22.00
2022-12-08T21:50:05.742Z,24.57
2022-12-08T21:52:37.894Z,21.77
2022-12-08T21:55:07.560Z,24.67
2022-12-08T21:57:37.077Z,24.33
2022-12-08T22:00:06.875Z,20.67
2022-12-08T22:02:35.705Z,38.30
2022-12-08T22:05:03.916Z,49.47
2022-12-08T22:07:32.116Z,27.53
2022-12-08T22:10:00.514Z,32.00
2022-12-08T22:12:29.149Z,21.60
2022-12-08T22:14:58.826Z,21.20
2022-12-08T22:17:27.229Z,20.80
2022-12-08T22:19:55.399Z,23.17
2022-12-08T22:22:23.505Z,20.43
2022-12-08T22:24:51.593Z,22.33
2022-12-08T22:27:19.671Z,20.33
2022-12-08T22:29:48.018Z,21.83
2022-12-08T22:32:17.639Z,26.50
2022-12-08T22:34:45.849Z,22.70
2022-12-08T22:37:14.064Z,21.97
2022-12-08T22:39:42.106Z,22.00
2022-12-08T22:42:10.175Z,19.00
2022-12-08T22:44:38.408Z,19.53
2022-12-08T22:47:06.871Z,19.60
2022-12-08T22:49:36.958Z,26.60
2022-12-08T22:52:05.562Z,20.17
2022-12-08T22:54:33.793Z,27.80
2022-12-08T22:57:02.192Z,21.40
2022-12-08T22:59:30.339Z,18.80
2022-12-08T23:01:58.554Z,19.57
2022-12-08T23:04:26.806Z,23.50
2022-12-08T23:06:56.380Z,18.63
2022-12-08T23:09:24.715Z,21.03
2022-12-08T23:11:53.008Z,19.87
2022-12-08T23:14:21.281Z,20.20
2022-12-08T23:16:49.853Z,19.57
2022-12-08T23:19:18.266Z,21.43
2022-12-08T23:21:46.572Z,22.03
2022-12-08T23:24:15.993Z,21.50
2022-12-08T23:26:44.380Z,23.40
2022-12-08T23:29:12.495Z,21.17
2022-12-08T23:31:40.783Z,17.87
2022-12-08T23:34:08.870Z,18.37
2022-12-08T23:36:36.932Z,42.73
2022-12-08T23:39:05.172Z,33.10
2022-12-08T23:41:34.687Z,26.57
2022-12-08T23:44:02.858Z,24.67
2022-12-08T23:46:31.116Z,22.20
2022-12-08T23:48:59.395Z,21.60
2022-12-08T23:51:27.569Z,25.03
2022-12-08T23:53:55.698Z,22.70
2022-12-08T23:56:29.881Z,22.53
2022-12-08T23:59:01.769Z,22.77
